sensor_id;sensor_type;location;lat;lon;timestamp;P1;durP1;ratioP1;P2;durP2;ratioP2
60225;SDS011;46090;48.436;11.410;2022-12-20T00:01:21;3.80;;;1.20;;
60225;SDS011;46090;48.436;11.410;2022-12-20T00:06:42;4.30;;;1.25;;
60225;SDS011;46090;48.436;11.410;2022-12-20T00:09:10;3.08;;;1.00;;
60225;SDS011;46090;48.436;11.410;2022-12-20T00:11:38;5.15;;;1.10;;
60225;SDS011;46090;48.436;11.410;2022-12-20T00:14:07;4.90;;;0.95;;
60225;SDS011;46090;48.436;11.410;2022-12-20T00:16:35;3.33;;;1.10;;
60225;SDS011;46090;48.436;11.410;2022-12-20T00:19:04;3.95;;;1.05;;
60225;SDS011;46090;48.436;11.410;2022-12-20T00:21:32;4.20;;;1.00;;
60225;SDS011;46090;48.436;11.410;2022-12-20T00:24:03;4.57;;;1.10;;
60225;SDS011;46090;48.436;11.410;2022-12-20T00:26:31;2.85;;;1.00;;
60225;SDS011;46090;48.436;11.410;2022-12-20T00:28:59;4.53;;;1.00;;
60225;SDS011;46090;48.436;11.410;2022-12-20T00:31:26;3.00;;;0.88;;
60225;SDS011;46090;48.436;11.410;2022-12-20T00:33:54;3.45;;;0.90;;
60225;SDS011;46090;48.436;11.410;2022-12-20T00:36:22;3.92;;;1.15;;
60225;SDS011;46090;48.436;11.410;2022-12-20T00:38:51;3.22;;;1.00;;
60225;SDS011;46090;48.436;11.410;2022-12-20T00:41:23;3.08;;;0.80;;
60225;SDS011;46090;48.436;11.410;2022-12-20T00:43:51;3.25;;;0.80;;
60225;SDS011;46090;48.436;11.410;2022-12-20T00:46:21;4.68;;;0.98;;
60225;SDS011;46090;48.436;11.410;2022-12-20T00:48:50;2.95;;;1.00;;
60225;SDS011;46090;48.436;11.410;2022-12-20T00:51:21;3.55;;;0.98;;
60225;SDS011;46090;48.436;11.410;2022-12-20T00:53:50;5.00;;;1.10;;
60225;SDS011;46090;48.436;11.410;2022-12-20T00:56:17;4.28;;;1.15;;
60225;SDS011;46090;48.436;11.410;2022-12-20T00:58:44;4.60;;;1.10;;
60225;SDS011;46090;48.436;11.410;2022-12-20T01:01:17;3.78;;;1.20;;
60225;SDS011;46090;48.436;11.410;2022-12-20T01:03:48;4.60;;;0.95;;
60225;SDS011;46090;48.436;11.410;2022-12-20T01:06:15;3.45;;;1.15;;
60225;SDS011;46090;48.436;11.410;2022-12-20T01:08:42;3.35;;;1.00;;
60225;SDS011;46090;48.436;11.410;2022-12-20T01:11:10;3.65;;;0.90;;
60225;SDS011;46090;48.436;11.410;2022-12-20T01:13:42;3.78;;;0.98;;
60225;SDS011;46090;48.436;11.410;2022-12-20T01:16:12;3.45;;;1.10;;
60225;SDS011;46090;48.436;11.410;2022-12-20T01:18:45;5.57;;;1.23;;
60225;SDS011;46090;48.436;11.410;2022-12-20T01:21:13;2.85;;;0.93;;
60225;SDS011;46090;48.436;11.410;2022-12-20T01:23:40;2.83;;;0.93;;
60225;SDS011;46090;48.436;11.410;2022-12-20T01:26:09;3.55;;;1.02;;
60225;SDS011;46090;48.436;11.410;2022-12-20T01:28:38;4.50;;;1.15;;
60225;SDS011;46090;48.436;11.410;2022-12-20T01:31:11;2.22;;;0.70;;
60225;SDS011;46090;48.436;11.410;2022-12-20T01:33:39;3.13;;;1.05;;
60225;SDS011;46090;48.436;11.410;2022-12-20T01:36:07;2.78;;;0.80;;
60225;SDS011;46090;48.436;11.410;2022-12-20T01:38:36;3.95;;;0.85;;
60225;SDS011;46090;48.436;11.410;2022-12-20T01:41:03;3.05;;;0.90;;
60225;SDS011;46090;48.436;11.410;2022-12-20T01:46:49;4.55;;;1.20;;
60225;SDS011;46090;48.436;11.410;2022-12-20T01:49:30;4.15;;;0.63;;
60225;SDS011;46090;48.436;11.410;2022-12-20T01:52:04;3.58;;;1.00;;
60225;SDS011;46090;48.436;11.410;2022-12-20T01:54:33;3.22;;;1.05;;
60225;SDS011;46090;48.436;11.410;2022-12-20T01:57:04;3.90;;;1.20;;
60225;SDS011;46090;48.436;11.410;2022-12-20T01:59:32;2.30;;;0.80;;
60225;SDS011;46090;48.436;11.410;2022-12-20T02:02:01;2.47;;;0.75;;
60225;SDS011;46090;48.436;11.410;2022-12-20T02:04:29;5.15;;;0.90;;
60225;SDS011;46090;48.436;11.410;2022-12-20T02:06:56;4.07;;;0.73;;
60225;SDS011;46090;48.436;11.410;2022-12-20T02:09:23;3.92;;;0.93;;
60225;SDS011;46090;48.436;11.410;2022-12-20T02:32:03;6.05;;;1.20;;
60225;SDS011;46090;48.436;11.410;2022-12-20T02:34:44;5.88;;;1.10;;
60225;SDS011;46090;48.436;11.410;2022-12-20T02:37:11;5.03;;;1.35;;
60225;SDS011;46090;48.436;11.410;2022-12-20T02:39:39;4.07;;;1.20;;
60225;SDS011;46090;48.436;11.410;2022-12-20T02:42:08;4.40;;;1.10;;
60225;SDS011;46090;48.436;11.410;2022-12-20T02:44:37;4.47;;;1.60;;
60225;SDS011;46090;48.436;11.410;2022-12-20T02:47:29;3.33;;;1.17;;
60225;SDS011;46090;48.436;11.410;2022-12-20T02:49:59;6.10;;;1.38;;
60225;SDS011;46090;48.436;11.410;2022-12-20T02:52:26;4.53;;;1.50;;
60225;SDS011;46090;48.436;11.410;2022-12-20T02:54:56;4.40;;;1.33;;
60225;SDS011;46090;48.436;11.410;2022-12-20T02:57:28;4.00;;;1.52;;
60225;SDS011;46090;48.436;11.410;2022-12-20T03:00:03;4.18;;;1.20;;
60225;SDS011;46090;48.436;11.410;2022-12-20T03:02:33;4.93;;;1.48;;
60225;SDS011;46090;48.436;11.410;2022-12-20T03:05:22;3.58;;;1.30;;
60225;SDS011;46090;48.436;11.410;2022-12-20T03:07:51;3.40;;;1.30;;
60225;SDS011;46090;48.436;11.410;2022-12-20T03:10:21;4.03;;;1.50;;
60225;SDS011;46090;48.436;11.410;2022-12-20T03:12:49;4.55;;;1.58;;
60225;SDS011;46090;48.436;11.410;2022-12-20T03:15:17;3.95;;;1.23;;
60225;SDS011;46090;48.436;11.410;2022-12-20T03:17:45;2.90;;;1.30;;
60225;SDS011;46090;48.436;11.410;2022-12-20T03:20:12;4.95;;;1.63;;
60225;SDS011;46090;48.436;11.410;2022-12-20T03:22:39;5.43;;;1.60;;
60225;SDS011;46090;48.436;11.410;2022-12-20T03:25:06;4.15;;;1.63;;
60225;SDS011;46090;48.436;11.410;2022-12-20T03:27:33;4.35;;;1.40;;
60225;SDS011;46090;48.436;11.410;2022-12-20T03:30:02;3.38;;;1.27;;
60225;SDS011;46090;48.436;11.410;2022-12-20T03:32:33;4.80;;;1.73;;
60225;SDS011;46090;48.436;11.410;2022-12-20T03:35:00;4.70;;;1.88;;
60225;SDS011;46090;48.436;11.410;2022-12-20T03:37:33;4.53;;;1.35;;
60225;SDS011;46090;48.436;11.410;2022-12-20T03:40:03;5.60;;;1.90;;
60225;SDS011;46090;48.436;11.410;2022-12-20T03:42:32;4.88;;;1.35;;
60225;SDS011;46090;48.436;11.410;2022-12-20T03:44:59;4.18;;;1.35;;
60225;SDS011;46090;48.436;11.410;2022-12-20T03:47:28;4.55;;;1.40;;
60225;SDS011;46090;48.436;11.410;2022-12-20T03:49:55;4.65;;;1.80;;
60225;SDS011;46090;48.436;11.410;2022-12-20T03:52:23;4.40;;;1.70;;
60225;SDS011;46090;48.436;11.410;2022-12-20T03:54:49;4.20;;;1.73;;
60225;SDS011;46090;48.436;11.410;2022-12-20T03:57:22;3.63;;;1.27;;
60225;SDS011;46090;48.436;11.410;2022-12-20T03:59:50;3.50;;;1.42;;
60225;SDS011;46090;48.436;11.410;2022-12-20T04:02:20;5.13;;;1.70;;
60225;SDS011;46090;48.436;11.410;2022-12-20T04:04:48;4.22;;;1.98;;
60225;SDS011;46090;48.436;11.410;2022-12-20T04:07:15;5.03;;;1.70;;
60225;SDS011;46090;48.436;11.410;2022-12-20T04:09:44;5.95;;;2.00;;
60225;SDS011;46090;48.436;11.410;2022-12-20T04:12:13;4.43;;;1.63;;
60225;SDS011;46090;48.436;11.410;2022-12-20T04:14:41;5.30;;;1.75;;
60225;SDS011;46090;48.436;11.410;2022-12-20T04:17:10;5.05;;;1.90;;
60225;SDS011;46090;48.436;11.410;2022-12-20T04:19:37;4.20;;;1.83;;
60225;SDS011;46090;48.436;11.410;2022-12-20T04:22:05;5.10;;;1.80;;
60225;SDS011;46090;48.436;11.410;2022-12-20T04:24:51;4.80;;;2.20;;
60225;SDS011;46090;48.436;11.410;2022-12-20T04:27:23;5.85;;;2.20;;
60225;SDS011;46090;48.436;11.410;2022-12-20T04:29:52;6.07;;;1.92;;
60225;SDS011;46090;48.436;11.410;2022-12-20T04:32:20;4.55;;;2.13;;
60225;SDS011;46090;48.436;11.410;2022-12-20T04:34:47;5.38;;;1.98;;
60225;SDS011;46090;48.436;11.410;2022-12-20T04:37:14;4.28;;;1.77;;
60225;SDS011;46090;48.436;11.410;2022-12-20T04:39:49;4.78;;;2.05;;
60225;SDS011;46090;48.436;11.410;2022-12-20T04:42:18;4.80;;;2.10;;
60225;SDS011;46090;48.436;11.410;2022-12-20T04:44:46;4.22;;;1.80;;
60225;SDS011;46090;48.436;11.410;2022-12-20T04:47:18;4.07;;;1.88;;
60225;SDS011;46090;48.436;11.410;2022-12-20T04:49:45;5.03;;;2.20;;
60225;SDS011;46090;48.436;11.410;2022-12-20T04:52:12;4.80;;;2.13;;
60225;SDS011;46090;48.436;11.410;2022-12-20T04:57:28;4.18;;;1.98;;
60225;SDS011;46090;48.436;11.410;2022-12-20T04:59:55;5.45;;;2.28;;
60225;SDS011;46090;48.436;11.410;2022-12-20T05:02:22;4.72;;;1.83;;
60225;SDS011;46090;48.436;11.410;2022-12-20T05:04:54;5.20;;;2.25;;
60225;SDS011;46090;48.436;11.410;2022-12-20T05:07:21;4.45;;;2.17;;
60225;SDS011;46090;48.436;11.410;2022-12-20T05:09:53;4.60;;;2.08;;
60225;SDS011;46090;48.436;11.410;2022-12-20T05:12:20;4.45;;;2.30;;
60225;SDS011;46090;48.436;11.410;2022-12-20T05:14:47;5.32;;;2.47;;
60225;SDS011;46090;48.436;11.410;2022-12-20T05:17:18;4.75;;;1.77;;
60225;SDS011;46090;48.436;11.410;2022-12-20T05:19:45;3.92;;;2.13;;
60225;SDS011;46090;48.436;11.410;2022-12-20T05:22:14;4.93;;;1.65;;
60225;SDS011;46090;48.436;11.410;2022-12-20T05:25:08;4.32;;;2.17;;
60225;SDS011;46090;48.436;11.410;2022-12-20T05:27:57;4.90;;;2.20;;
60225;SDS011;46090;48.436;11.410;2022-12-20T05:30:27;4.95;;;2.28;;
60225;SDS011;46090;48.436;11.410;2022-12-20T05:32:55;4.63;;;1.63;;
60225;SDS011;46090;48.436;11.410;2022-12-20T05:35:22;5.32;;;2.20;;
60225;SDS011;46090;48.436;11.410;2022-12-20T05:37:55;4.55;;;1.95;;
60225;SDS011;46090;48.436;11.410;2022-12-20T05:40:22;3.33;;;1.40;;
60225;SDS011;46090;48.436;11.410;2022-12-20T05:42:49;3.72;;;1.60;;
60225;SDS011;46090;48.436;11.410;2022-12-20T05:45:16;3.35;;;1.20;;
60225;SDS011;46090;48.436;11.410;2022-12-20T05:47:49;21.35;;;2.38;;
60225;SDS011;46090;48.436;11.410;2022-12-20T05:50:16;6.60;;;1.20;;
60225;SDS011;46090;48.436;11.410;2022-12-20T05:53:03;4.18;;;1.75;;
60225;SDS011;46090;48.436;11.410;2022-12-20T05:55:43;4.28;;;1.30;;
60225;SDS011;46090;48.436;11.410;2022-12-20T05:58:11;6.28;;;1.65;;
60225;SDS011;46090;48.436;11.410;2022-12-20T06:00:48;28.23;;;14.90;;
60225;SDS011;46090;48.436;11.410;2022-12-20T06:03:15;19.67;;;9.50;;
60225;SDS011;46090;48.436;11.410;2022-12-20T06:05:43;15.93;;;4.15;;
60225;SDS011;46090;48.436;11.410;2022-12-20T06:08:14;15.60;;;5.50;;
60225;SDS011;46090;48.436;11.410;2022-12-20T06:10:41;14.48;;;5.20;;
60225;SDS011;46090;48.436;11.410;2022-12-20T06:13:09;15.05;;;4.72;;
60225;SDS011;46090;48.436;11.410;2022-12-20T06:15:37;15.48;;;4.30;;
60225;SDS011;46090;48.436;11.410;2022-12-20T06:18:06;12.07;;;3.97;;
60225;SDS011;46090;48.436;11.410;2022-12-20T06:20:33;16.80;;;4.53;;
60225;SDS011;46090;48.436;11.410;2022-12-20T06:23:02;15.38;;;4.22;;
60225;SDS011;46090;48.436;11.410;2022-12-20T06:25:36;16.73;;;4.38;;
60225;SDS011;46090;48.436;11.410;2022-12-20T06:28:03;13.18;;;4.30;;
60225;SDS011;46090;48.436;11.410;2022-12-20T06:30:31;12.82;;;3.53;;
60225;SDS011;46090;48.436;11.410;2022-12-20T06:33:11;14.90;;;3.72;;
60225;SDS011;46090;48.436;11.410;2022-12-20T06:35:39;19.27;;;4.00;;
60225;SDS011;46090;48.436;11.410;2022-12-20T06:38:06;17.10;;;4.03;;
60225;SDS011;46090;48.436;11.410;2022-12-20T06:40:34;12.30;;;4.03;;
60225;SDS011;46090;48.436;11.410;2022-12-20T06:43:02;17.60;;;4.28;;
60225;SDS011;46090;48.436;11.410;2022-12-20T06:45:28;14.50;;;3.80;;
60225;SDS011;46090;48.436;11.410;2022-12-20T06:48:00;12.35;;;3.45;;
60225;SDS011;46090;48.436;11.410;2022-12-20T06:50:29;12.80;;;3.85;;
60225;SDS011;46090;48.436;11.410;2022-12-20T06:52:56;16.10;;;3.70;;
60225;SDS011;46090;48.436;11.410;2022-12-20T06:55:23;12.05;;;3.95;;
60225;SDS011;46090;48.436;11.410;2022-12-20T06:57:50;17.15;;;4.22;;
60225;SDS011;46090;48.436;11.410;2022-12-20T07:00:18;16.35;;;3.50;;
60225;SDS011;46090;48.436;11.410;2022-12-20T07:02:45;13.82;;;3.22;;
60225;SDS011;46090;48.436;11.410;2022-12-20T07:05:12;14.95;;;3.50;;
60225;SDS011;46090;48.436;11.410;2022-12-20T07:07:39;16.10;;;3.67;;
60225;SDS011;46090;48.436;11.410;2022-12-20T07:10:10;17.58;;;3.53;;
60225;SDS011;46090;48.436;11.410;2022-12-20T07:12:38;13.18;;;3.75;;
60225;SDS011;46090;48.436;11.410;2022-12-20T07:17:39;15.73;;;7.45;;
60225;SDS011;46090;48.436;11.410;2022-12-20T07:20:06;18.88;;;6.20;;
60225;SDS011;46090;48.436;11.410;2022-12-20T07:22:39;18.45;;;4.57;;
60225;SDS011;46090;48.436;11.410;2022-12-20T07:25:06;9.75;;;3.60;;
60225;SDS011;46090;48.436;11.410;2022-12-20T07:27:33;12.68;;;4.30;;
60225;SDS011;46090;48.436;11.410;2022-12-20T07:30:00;13.07;;;3.90;;
60225;SDS011;46090;48.436;11.410;2022-12-20T07:32:27;8.48;;;3.20;;
60225;SDS011;46090;48.436;11.410;2022-12-20T07:34:53;13.50;;;3.55;;
60225;SDS011;46090;48.436;11.410;2022-12-20T07:37:20;7.78;;;2.92;;
60225;SDS011;46090;48.436;11.410;2022-12-20T07:39:47;11.25;;;3.63;;
60225;SDS011;46090;48.436;11.410;2022-12-20T07:42:15;8.80;;;3.20;;
60225;SDS011;46090;48.436;11.410;2022-12-20T07:44:46;10.60;;;3.63;;
60225;SDS011;46090;48.436;11.410;2022-12-20T07:47:13;13.93;;;3.33;;
60225;SDS011;46090;48.436;11.410;2022-12-20T07:49:40;8.45;;;3.00;;
60225;SDS011;46090;48.436;11.410;2022-12-20T07:52:06;11.75;;;3.30;;
60225;SDS011;46090;48.436;11.410;2022-12-20T07:54:34;9.40;;;3.22;;
60225;SDS011;46090;48.436;11.410;2022-12-20T07:57:04;8.38;;;3.45;;
60225;SDS011;46090;48.436;11.410;2022-12-20T07:59:35;24.38;;;5.53;;
60225;SDS011;46090;48.436;11.410;2022-12-20T08:02:05;11.10;;;3.95;;
60225;SDS011;46090;48.436;11.410;2022-12-20T08:04:44;12.40;;;3.85;;
60225;SDS011;46090;48.436;11.410;2022-12-20T08:07:10;9.38;;;3.38;;
60225;SDS011;46090;48.436;11.410;2022-12-20T08:09:39;10.55;;;3.67;;
60225;SDS011;46090;48.436;11.410;2022-12-20T08:12:09;9.82;;;3.50;;
60225;SDS011;46090;48.436;11.410;2022-12-20T08:14:36;9.00;;;3.60;;
60225;SDS011;46090;48.436;11.410;2022-12-20T08:17:03;10.38;;;3.95;;
60225;SDS011;46090;48.436;11.410;2022-12-20T08:19:30;10.93;;;4.00;;
60225;SDS011;46090;48.436;11.410;2022-12-20T08:21:59;10.60;;;3.10;;
60225;SDS011;46090;48.436;11.410;2022-12-20T08:24:25;8.57;;;3.58;;
60225;SDS011;46090;48.436;11.410;2022-12-20T08:26:52;10.10;;;3.72;;
60225;SDS011;46090;48.436;11.410;2022-12-20T08:29:19;12.05;;;3.47;;
60225;SDS011;46090;48.436;11.410;2022-12-20T08:31:46;9.43;;;3.10;;
60225;SDS011;46090;48.436;11.410;2022-12-20T08:34:16;10.80;;;3.42;;
60225;SDS011;46090;48.436;11.410;2022-12-20T08:36:43;6.97;;;3.00;;
60225;SDS011;46090;48.436;11.410;2022-12-20T08:39:10;8.88;;;2.90;;
60225;SDS011;46090;48.436;11.410;2022-12-20T08:41:37;8.50;;;3.35;;
60225;SDS011;46090;48.436;11.410;2022-12-20T08:44:04;8.43;;;3.22;;
60225;SDS011;46090;48.436;11.410;2022-12-20T08:46:31;10.35;;;3.03;;
60225;SDS011;46090;48.436;11.410;2022-12-20T08:48:59;9.75;;;3.13;;
60225;SDS011;46090;48.436;11.410;2022-12-20T08:51:26;7.28;;;2.67;;
60225;SDS011;46090;48.436;11.410;2022-12-20T08:53:52;8.93;;;3.20;;
60225;SDS011;46090;48.436;11.410;2022-12-20T08:56:21;7.75;;;2.63;;
60225;SDS011;46090;48.436;11.410;2022-12-20T08:58:48;10.77;;;3.38;;
60225;SDS011;46090;48.436;11.410;2022-12-20T09:01:16;6.35;;;2.50;;
60225;SDS011;46090;48.436;11.410;2022-12-20T09:03:44;7.38;;;2.47;;
60225;SDS011;46090;48.436;11.410;2022-12-20T09:06:13;10.65;;;3.13;;
60225;SDS011;46090;48.436;11.410;2022-12-20T09:08:41;8.95;;;3.25;;
60225;SDS011;46090;48.436;11.410;2022-12-20T09:13:39;9.00;;;2.80;;
60225;SDS011;46090;48.436;11.410;2022-12-20T09:16:11;7.03;;;2.88;;
60225;SDS011;46090;48.436;11.410;2022-12-20T09:18:39;7.82;;;2.72;;
60225;SDS011;46090;48.436;11.410;2022-12-20T09:21:06;6.88;;;3.00;;
60225;SDS011;46090;48.436;11.410;2022-12-20T09:23:34;7.57;;;2.88;;
60225;SDS011;46090;48.436;11.410;2022-12-20T09:26:03;8.27;;;2.70;;
60225;SDS011;46090;48.436;11.410;2022-12-20T09:28:31;7.85;;;2.83;;
60225;SDS011;46090;48.436;11.410;2022-12-20T09:30:59;8.73;;;2.70;;
60225;SDS011;46090;48.436;11.410;2022-12-20T09:33:27;7.45;;;2.60;;
60225;SDS011;46090;48.436;11.410;2022-12-20T09:35:56;7.00;;;2.47;;
60225;SDS011;46090;48.436;11.410;2022-12-20T09:38:25;7.80;;;2.17;;
60225;SDS011;46090;48.436;11.410;2022-12-20T09:40:53;7.28;;;2.58;;
60225;SDS011;46090;48.436;11.410;2022-12-20T09:43:22;6.53;;;2.13;;
60225;SDS011;46090;48.436;11.410;2022-12-20T09:45:50;7.72;;;2.50;;
60225;SDS011;46090;48.436;11.410;2022-12-20T09:48:22;7.00;;;2.83;;
60225;SDS011;46090;48.436;11.410;2022-12-20T09:51:01;7.45;;;2.58;;
60225;SDS011;46090;48.436;11.410;2022-12-20T09:59:54;11.05;;;3.92;;
60225;SDS011;46090;48.436;11.410;2022-12-20T10:02:22;7.05;;;3.22;;
60225;SDS011;46090;48.436;11.410;2022-12-20T10:05:16;9.63;;;3.13;;
60225;SDS011;46090;48.436;11.410;2022-12-20T10:10:22;8.10;;;2.88;;
60225;SDS011;46090;48.436;11.410;2022-12-20T10:15:58;9.23;;;2.95;;
60225;SDS011;46090;48.436;11.410;2022-12-20T10:18:47;5.80;;;2.70;;
60225;SDS011;46090;48.436;11.410;2022-12-20T10:26:48;7.85;;;2.35;;
60225;SDS011;46090;48.436;11.410;2022-12-20T10:29:16;7.40;;;2.72;;
60225;SDS011;46090;48.436;11.410;2022-12-20T10:31:44;5.78;;;2.58;;
60225;SDS011;46090;48.436;11.410;2022-12-20T10:34:10;9.05;;;3.00;;
60225;SDS011;46090;48.436;11.410;2022-12-20T10:36:38;6.20;;;2.17;;
60225;SDS011;46090;48.436;11.410;2022-12-20T10:39:06;7.28;;;2.30;;
60225;SDS011;46090;48.436;11.410;2022-12-20T10:44:22;7.65;;;2.72;;
60225;SDS011;46090;48.436;11.410;2022-12-20T10:46:53;5.13;;;2.45;;
60225;SDS011;46090;48.436;11.410;2022-12-20T10:49:43;6.43;;;2.30;;
60225;SDS011;46090;48.436;11.410;2022-12-20T10:54:37;6.97;;;2.20;;
60225;SDS011;46090;48.436;11.410;2022-12-20T11:02:22;7.30;;;2.42;;
60225;SDS011;46090;48.436;11.410;2022-12-20T11:04:59;6.70;;;2.20;;
60225;SDS011;46090;48.436;11.410;2022-12-20T11:07:32;6.07;;;2.35;;
60225;SDS011;46090;48.436;11.410;2022-12-20T11:10:00;6.30;;;2.60;;
60225;SDS011;46090;48.436;11.410;2022-12-20T11:12:59;10.48;;;2.60;;
60225;SDS011;46090;48.436;11.410;2022-12-20T11:15:27;5.43;;;2.25;;
60225;SDS011;46090;48.436;11.410;2022-12-20T11:18:05;7.57;;;2.42;;
60225;SDS011;46090;48.436;11.410;2022-12-20T11:20:40;9.52;;;2.58;;
60225;SDS011;46090;48.436;11.410;2022-12-20T11:23:26;6.70;;;2.30;;
60225;SDS011;46090;48.436;11.410;2022-12-20T11:37:03;8.60;;;2.33;;
60225;SDS011;46090;48.436;11.410;2022-12-20T11:39:49;7.13;;;2.22;;
60225;SDS011;46090;48.436;11.410;2022-12-20T11:50:33;5.68;;;2.33;;
60225;SDS011;46090;48.436;11.410;2022-12-20T11:53:31;8.23;;;2.50;;
60225;SDS011;46090;48.436;11.410;2022-12-20T11:56:04;8.32;;;2.30;;
60225;SDS011;46090;48.436;11.410;2022-12-20T11:58:45;6.18;;;2.85;;
60225;SDS011;46090;48.436;11.410;2022-12-20T12:01:16;6.43;;;2.15;;
60225;SDS011;46090;48.436;11.410;2022-12-20T12:03:52;5.95;;;2.70;;
60225;SDS011;46090;48.436;11.410;2022-12-20T12:06:33;5.75;;;2.40;;
60225;SDS011;46090;48.436;11.410;2022-12-20T12:12:03;5.28;;;2.28;;
60225;SDS011;46090;48.436;11.410;2022-12-20T12:17:46;6.63;;;2.47;;
60225;SDS011;46090;48.436;11.410;2022-12-20T12:23:22;7.88;;;2.80;;
60225;SDS011;46090;48.436;11.410;2022-12-20T12:25:52;6.50;;;2.47;;
60225;SDS011;46090;48.436;11.410;2022-12-20T12:28:19;6.88;;;2.63;;
60225;SDS011;46090;48.436;11.410;2022-12-20T12:30:47;5.45;;;2.50;;
60225;SDS011;46090;48.436;11.410;2022-12-20T12:33:27;5.25;;;2.42;;
60225;SDS011;46090;48.436;11.410;2022-12-20T12:36:26;4.53;;;2.20;;
60225;SDS011;46090;48.436;11.410;2022-12-20T12:42:12;4.68;;;2.33;;
60225;SDS011;46090;48.436;11.410;2022-12-20T12:45:01;6.28;;;2.20;;
60225;SDS011;46090;48.436;11.410;2022-12-20T12:47:34;6.32;;;2.20;;
60225;SDS011;46090;48.436;11.410;2022-12-20T12:50:07;5.50;;;2.25;;
60225;SDS011;46090;48.436;11.410;2022-12-20T12:52:39;5.57;;;2.13;;
60225;SDS011;46090;48.436;11.410;2022-12-20T12:58:13;4.35;;;2.10;;
60225;SDS011;46090;48.436;11.410;2022-12-20T13:11:36;4.85;;;1.85;;
60225;SDS011;46090;48.436;11.410;2022-12-20T13:16:51;5.40;;;1.88;;
60225;SDS011;46090;48.436;11.410;2022-12-20T13:19:50;5.53;;;2.00;;
60225;SDS011;46090;48.436;11.410;2022-12-20T13:22:24;5.88;;;2.10;;
60225;SDS011;46090;48.436;11.410;2022-12-20T13:24:52;6.55;;;2.03;;
60225;SDS011;46090;48.436;11.410;2022-12-20T13:27:38;6.53;;;2.58;;
60225;SDS011;46090;48.436;11.410;2022-12-20T13:40:44;4.30;;;1.90;;
60225;SDS011;46090;48.436;11.410;2022-12-20T13:43:20;4.47;;;2.10;;
60225;SDS011;46090;48.436;11.410;2022-12-20T13:45:56;5.03;;;2.00;;
60225;SDS011;46090;48.436;11.410;2022-12-20T13:51:03;4.95;;;1.80;;
60225;SDS011;46090;48.436;11.410;2022-12-20T13:53:31;5.72;;;2.05;;
60225;SDS011;46090;48.436;11.410;2022-12-20T13:55:57;4.38;;;1.90;;
60225;SDS011;46090;48.436;11.410;2022-12-20T13:58:25;5.22;;;1.95;;
60225;SDS011;46090;48.436;11.410;2022-12-20T14:00:53;6.25;;;2.13;;
60225;SDS011;46090;48.436;11.410;2022-12-20T14:03:30;4.55;;;1.70;;
60225;SDS011;46090;48.436;11.410;2022-12-20T14:06:00;6.82;;;2.38;;
60225;SDS011;46090;48.436;11.410;2022-12-20T14:08:32;8.57;;;2.45;;
60225;SDS011;46090;48.436;11.410;2022-12-20T14:11:10;11.13;;;6.38;;
60225;SDS011;46090;48.436;11.410;2022-12-20T14:13:37;16.92;;;3.90;;
60225;SDS011;46090;48.436;11.410;2022-12-20T14:16:14;8.15;;;3.70;;
60225;SDS011;46090;48.436;11.410;2022-12-20T14:18:49;8.85;;;3.38;;
60225;SDS011;46090;48.436;11.410;2022-12-20T14:21:16;20.48;;;4.47;;
60225;SDS011;46090;48.436;11.410;2022-12-20T14:23:45;21.98;;;4.10;;
60225;SDS011;46090;48.436;11.410;2022-12-20T14:26:14;15.60;;;3.90;;
60225;SDS011;46090;48.436;11.410;2022-12-20T14:28:43;19.25;;;4.43;;
60225;SDS011;46090;48.436;11.410;2022-12-20T14:36:45;14.27;;;4.18;;
60225;SDS011;46090;48.436;11.410;2022-12-20T14:39:26;18.05;;;4.97;;
60225;SDS011;46090;48.436;11.410;2022-12-20T14:41:56;14.90;;;4.35;;
60225;SDS011;46090;48.436;11.410;2022-12-20T14:44:28;13.50;;;4.50;;
60225;SDS011;46090;48.436;11.410;2022-12-20T14:46:59;17.08;;;6.95;;
60225;SDS011;46090;48.436;11.410;2022-12-20T14:54:32;15.23;;;5.93;;
60225;SDS011;46090;48.436;11.410;2022-12-20T15:02:45;12.52;;;4.50;;
60225;SDS011;46090;48.436;11.410;2022-12-20T15:08:20;15.00;;;4.70;;
60225;SDS011;46090;48.436;11.410;2022-12-20T15:10:48;16.02;;;4.88;;
60225;SDS011;46090;48.436;11.410;2022-12-20T15:13:21;11.73;;;4.25;;
60225;SDS011;46090;48.436;11.410;2022-12-20T15:15:53;10.32;;;4.30;;
60225;SDS011;46090;48.436;11.410;2022-12-20T15:18:20;10.02;;;4.22;;
60225;SDS011;46090;48.436;11.410;2022-12-20T15:20:48;9.38;;;3.95;;
60225;SDS011;46090;48.436;11.410;2022-12-20T15:23:30;13.90;;;3.88;;
60225;SDS011;46090;48.436;11.410;2022-12-20T15:25:57;13.25;;;4.25;;
60225;SDS011;46090;48.436;11.410;2022-12-20T15:28:24;16.63;;;4.38;;
60225;SDS011;46090;48.436;11.410;2022-12-20T15:30:52;11.93;;;4.57;;
60225;SDS011;46090;48.436;11.410;2022-12-20T15:33:29;11.60;;;3.90;;
60225;SDS011;46090;48.436;11.410;2022-12-20T15:35:59;9.68;;;3.88;;
60225;SDS011;46090;48.436;11.410;2022-12-20T15:38:25;11.65;;;3.63;;
60225;SDS011;46090;48.436;11.410;2022-12-20T15:41:23;11.48;;;4.28;;
60225;SDS011;46090;48.436;11.410;2022-12-20T15:43:51;11.43;;;4.07;;
60225;SDS011;46090;48.436;11.410;2022-12-20T15:46:20;11.35;;;4.40;;
60225;SDS011;46090;48.436;11.410;2022-12-20T15:48:47;11.70;;;3.47;;
60225;SDS011;46090;48.436;11.410;2022-12-20T15:51:26;10.27;;;3.70;;
60225;SDS011;46090;48.436;11.410;2022-12-20T15:53:56;13.38;;;4.18;;
60225;SDS011;46090;48.436;11.410;2022-12-20T15:56:26;13.40;;;4.15;;
60225;SDS011;46090;48.436;11.410;2022-12-20T15:58:53;15.98;;;4.65;;
60225;SDS011;46090;48.436;11.410;2022-12-20T16:01:21;16.92;;;4.47;;
60225;SDS011;46090;48.436;11.410;2022-12-20T16:03:51;16.35;;;4.60;;
60225;SDS011;46090;48.436;11.410;2022-12-20T16:06:18;17.70;;;4.60;;
60225;SDS011;46090;48.436;11.410;2022-12-20T16:08:45;28.30;;;5.03;;
60225;SDS011;46090;48.436;11.410;2022-12-20T16:11:22;20.02;;;5.20;;
60225;SDS011;46090;48.436;11.410;2022-12-20T16:13:53;21.80;;;5.40;;
60225;SDS011;46090;48.436;11.410;2022-12-20T16:16:22;18.02;;;4.38;;
60225;SDS011;46090;48.436;11.410;2022-12-20T16:18:49;14.23;;;4.53;;
60225;SDS011;46090;48.436;11.410;2022-12-20T16:21:22;16.48;;;4.82;;
60225;SDS011;46090;48.436;11.410;2022-12-20T16:23:50;17.13;;;4.35;;
60225;SDS011;46090;48.436;11.410;2022-12-20T16:26:18;12.50;;;4.25;;
60225;SDS011;46090;48.436;11.410;2022-12-20T16:28:47;13.68;;;5.35;;
60225;SDS011;46090;48.436;11.410;2022-12-20T16:36:56;15.25;;;5.03;;
60225;SDS011;46090;48.436;11.410;2022-12-20T16:39:23;12.48;;;4.65;;
60225;SDS011;46090;48.436;11.410;2022-12-20T16:41:49;15.18;;;5.65;;
60225;SDS011;46090;48.436;11.410;2022-12-20T16:44:16;14.07;;;4.80;;
60225;SDS011;46090;48.436;11.410;2022-12-20T16:46:44;13.23;;;4.47;;
60225;SDS011;46090;48.436;11.410;2022-12-20T16:49:11;13.57;;;4.88;;
60225;SDS011;46090;48.436;11.410;2022-12-20T16:51:45;13.27;;;4.80;;
60225;SDS011;46090;48.436;11.410;2022-12-20T16:54:14;16.75;;;5.20;;
60225;SDS011;46090;48.436;11.410;2022-12-20T16:56:45;16.10;;;5.00;;
60225;SDS011;46090;48.436;11.410;2022-12-20T16:59:13;14.52;;;4.68;;
60225;SDS011;46090;48.436;11.410;2022-12-20T17:01:47;13.07;;;4.10;;
60225;SDS011;46090;48.436;11.410;2022-12-20T17:04:18;13.38;;;4.32;;
60225;SDS011;46090;48.436;11.410;2022-12-20T17:06:47;19.27;;;4.28;;
60225;SDS011;46090;48.436;11.410;2022-12-20T17:09:14;19.15;;;4.70;;
60225;SDS011;46090;48.436;11.410;2022-12-20T17:12:01;11.30;;;3.85;;
60225;SDS011;46090;48.436;11.410;2022-12-20T17:14:29;18.23;;;4.72;;
60225;SDS011;46090;48.436;11.410;2022-12-20T17:16:56;13.45;;;4.60;;
60225;SDS011;46090;48.436;11.410;2022-12-20T17:19:23;13.32;;;4.50;;